sensor_id;sensor_type;location;lat;lon;timestamp;temperature;humidity
41481;DHT22;27217;51.220;5.308;2023-05-10T00:01:36;14.10;99.90
41481;DHT22;27217;51.220;5.308;2023-05-10T00:04:02;14.10;99.90
41481;DHT22;27217;51.220;5.308;2023-05-10T00:06:28;13.80;99.90
41481;DHT22;27217;51.220;5.308;2023-05-10T00:08:55;13.70;99.90
41481;DHT22;27217;51.220;5.308;2023-05-10T00:11:20;14.00;99.90
41481;DHT22;27217;51.220;5.308;2023-05-10T00:13:46;13.90;99.90
41481;DHT22;27217;51.220;5.308;2023-05-10T00:16:12;13.90;99.90
41481;DHT22;27217;51.220;5.308;2023-05-10T00:18:39;13.70;99.90
41481;DHT22;27217;51.220;5.308;2023-05-10T00:21:05;13.70;99.90
41481;DHT22;27217;51.220;5.308;2023-05-10T00:23:31;13.40;99.90
41481;DHT22;27217;51.220;5.308;2023-05-10T00:25:57;13.70;99.90
41481;DHT22;27217;51.220;5.308;2023-05-10T00:28:22;13.80;99.90
41481;DHT22;27217;51.220;5.308;2023-05-10T00:30:48;13.80;99.90
41481;DHT22;27217;51.220;5.308;2023-05-10T00:33:14;13.80;99.90
41481;DHT22;27217;51.220;5.308;2023-05-10T00:35:40;13.90;99.90
41481;DHT22;27217;51.220;5.308;2023-05-10T00:38:07;13.90;99.90
41481;DHT22;27217;51.220;5.308;2023-05-10T00:40:32;13.80;99.90
41481;DHT22;27217;51.220;5.308;2023-05-10T00:42:59;14.10;99.90
41481;DHT22;27217;51.220;5.308;2023-05-10T00:45:25;13.90;99.90
41481;DHT22;27217;51.220;5.308;2023-05-10T00:47:52;13.90;99.90
41481;DHT22;27217;51.220;5.308;2023-05-10T00:50:23;13.60;99.90
41481;DHT22;27217;51.220;5.308;2023-05-10T00:52:50;13.70;99.90
41481;DHT22;27217;51.220;5.308;2023-05-10T00:55:16;13.70;99.90
41481;DHT22;27217;51.220;5.308;2023-05-10T00:57:42;13.90;99.90
41481;DHT22;27217;51.220;5.308;2023-05-10T01:00:08;13.90;99.90
41481;DHT22;27217;51.220;5.308;2023-05-10T01:02:35;14.10;99.90
41481;DHT22;27217;51.220;5.308;2023-05-10T01:05:02;14.10;99.90
41481;DHT22;27217;51.220;5.308;2023-05-10T01:07:29;14.00;99.90
41481;DHT22;27217;51.220;5.308;2023-05-10T01:09:55;14.10;99.90
41481;DHT22;27217;51.220;5.308;2023-05-10T01:12:21;14.00;99.90
41481;DHT22;27217;51.220;5.308;2023-05-10T01:14:48;13.80;99.90
41481;DHT22;27217;51.220;5.308;2023-05-10T01:17:13;13.80;99.90
41481;DHT22;27217;51.220;5.308;2023-05-10T01:19:40;13.60;99.90
41481;DHT22;27217;51.220;5.308;2023-05-10T01:22:26;13.60;99.90
41481;DHT22;27217;51.220;5.308;2023-05-10T01:31:20;13.90;99.90
41481;DHT22;27217;51.220;5.308;2023-05-10T01:33:55;13.80;99.90
41481;DHT22;27217;51.220;5.308;2023-05-10T01:39:04;13.50;99.90
41481;DHT22;27217;51.220;5.308;2023-05-10T01:46:35;13.50;99.90
41481;DHT22;27217;51.220;5.308;2023-05-10T01:49:02;13.30;99.90
41481;DHT22;27217;51.220;5.308;2023-05-10T01:51:39;13.50;99.90
41481;DHT22;27217;51.220;5.308;2023-05-10T01:54:07;13.70;99.90
41481;DHT22;27217;51.220;5.308;2023-05-10T01:56:35;13.70;99.90
41481;DHT22;27217;51.220;5.308;2023-05-10T01:59:11;13.60;99.90
41481;DHT22;27217;51.220;5.308;2023-05-10T02:01:40;13.70;99.90
41481;DHT22;27217;51.220;5.308;2023-05-10T02:04:07;13.80;99.90
41481;DHT22;27217;51.220;5.308;2023-05-10T02:06:34;13.60;99.90
41481;DHT22;27217;51.220;5.308;2023-05-10T02:09:02;13.50;99.90
41481;DHT22;27217;51.220;5.308;2023-05-10T02:11:29;13.60;99.90
41481;DHT22;27217;51.220;5.308;2023-05-10T02:13:57;13.70;99.90
41481;DHT22;27217;51.220;5.308;2023-05-10T02:16:26;13.40;99.90
41481;DHT22;27217;51.220;5.308;2023-05-10T02:18:52;13.80;99.90
41481;DHT22;27217;51.220;5.308;2023-05-10T02:21:20;13.70;99.90
41481;DHT22;27217;51.220;5.308;2023-05-10T02:23:48;13.50;99.90
41481;DHT22;27217;51.220;5.308;2023-05-10T02:26:16;13.30;99.90
41481;DHT22;27217;51.220;5.308;2023-05-10T02:28:43;13.60;99.90
41481;DHT22;27217;51.220;5.308;2023-05-10T02:31:10;13.40;99.90
41481;DHT22;27217;51.220;5.308;2023-05-10T02:33:38;13.40;99.90
41481;DHT22;27217;51.220;5.308;2023-05-10T02:36:07;13.30;99.90
41481;DHT22;27217;51.220;5.308;2023-05-10T02:38:36;13.30;99.90
41481;DHT22;27217;51.220;5.308;2023-05-10T02:41:03;13.20;99.90
41481;DHT22;27217;51.220;5.308;2023-05-10T02:43:32;13.40;99.90
41481;DHT22;27217;51.220;5.308;2023-05-10T02:45:58;13.40;99.90
41481;DHT22;27217;51.220;5.308;2023-05-10T02:48:25;13.40;99.90
41481;DHT22;27217;51.220;5.308;2023-05-10T02:50:52;13.30;99.90
41481;DHT22;27217;51.220;5.308;2023-05-10T02:53:22;13.40;99.90
41481;DHT22;27217;51.220;5.308;2023-05-10T02:55:52;13.30;99.90
41481;DHT22;27217;51.220;5.308;2023-05-10T02:58:18;13.40;99.90
41481;DHT22;27217;51.220;5.308;2023-05-10T03:00:47;13.50;99.90
41481;DHT22;27217;51.220;5.308;2023-05-10T03:03:13;13.50;99.90
41481;DHT22;27217;51.220;5.308;2023-05-10T03:05:41;13.50;99.90
41481;DHT22;27217;51.220;5.308;2023-05-10T03:08:08;13.50;99.90
41481;DHT22;27217;51.220;5.308;2023-05-10T03:10:41;13.40;99.90
41481;DHT22;27217;51.220;5.308;2023-05-10T03:13:31;13.50;99.90
41481;DHT22;27217;51.220;5.308;2023-05-10T03:16:22;13.70;99.90
41481;DHT22;27217;51.220;5.308;2023-05-10T03:19:17;13.60;99.90
41481;DHT22;27217;51.220;5.308;2023-05-10T03:21:50;13.40;99.90
41481;DHT22;27217;51.220;5.308;2023-05-10T03:24:21;13.30;99.90
41481;DHT22;27217;51.220;5.308;2023-05-10T03:26:49;13.50;99.90
41481;DHT22;27217;51.220;5.308;2023-05-10T03:29:17;13.20;99.90
41481;DHT22;27217;51.220;5.308;2023-05-10T03:31:43;13.30;99.90
41481;DHT22;27217;51.220;5.308;2023-05-10T03:34:09;13.00;99.90
41481;DHT22;27217;51.220;5.308;2023-05-10T03:36:36;13.00;99.90
41481;DHT22;27217;51.220;5.308;2023-05-10T03:39:02;13.10;99.90
41481;DHT22;27217;51.220;5.308;2023-05-10T03:41:28;13.10;99.90
41481;DHT22;27217;51.220;5.308;2023-05-10T03:43:54;13.20;99.90
41481;DHT22;27217;51.220;5.308;2023-05-10T03:46:20;13.20;99.90
41481;DHT22;27217;51.220;5.308;2023-05-10T03:48:46;13.30;99.90
41481;DHT22;27217;51.220;5.308;2023-05-10T03:51:15;13.20;99.90
41481;DHT22;27217;51.220;5.308;2023-05-10T03:53:41;13.30;99.90
41481;DHT22;27217;51.220;5.308;2023-05-10T03:56:07;13.20;99.90
41481;DHT22;27217;51.220;5.308;2023-05-10T03:58:33;13.20;99.90
41481;DHT22;27217;51.220;5.308;2023-05-10T04:00:58;13.40;99.90
41481;DHT22;27217;51.220;5.308;2023-05-10T04:03:25;13.50;99.90
41481;DHT22;27217;51.220;5.308;2023-05-10T04:05:59;13.20;99.90
41481;DHT22;27217;51.220;5.308;2023-05-10T04:08:26;13.30;99.90
41481;DHT22;27217;51.220;5.308;2023-05-10T04:10:52;13.10;99.90
41481;DHT22;27217;51.220;5.308;2023-05-10T04:13:17;13.10;99.90
41481;DHT22;27217;51.220;5.308;2023-05-10T04:15:44;13.00;99.90
41481;DHT22;27217;51.220;5.308;2023-05-10T04:18:10;13.00;99.90
41481;DHT22;27217;51.220;5.308;2023-05-10T04:20:36;13.10;99.90
41481;DHT22;27217;51.220;5.308;2023-05-10T04:23:02;13.30;99.90
41481;DHT22;27217;51.220;5.308;2023-05-10T04:25:28;13.20;99.90
41481;DHT22;27217;51.220;5.308;2023-05-10T04:27:54;13.30;99.90
41481;DHT22;27217;51.220;5.308;2023-05-10T04:30:20;13.10;99.90
41481;DHT22;27217;51.220;5.308;2023-05-10T04:32:46;13.40;99.90
41481;DHT22;27217;51.220;5.308;2023-05-10T04:35:12;13.30;99.90
41481;DHT22;27217;51.220;5.308;2023-05-10T04:37:40;13.20;99.90
41481;DHT22;27217;51.220;5.308;2023-05-10T04:40:07;13.30;99.90
41481;DHT22;27217;51.220;5.308;2023-05-10T04:42:35;13.40;99.90
41481;DHT22;27217;51.220;5.308;2023-05-10T04:45:01;13.30;99.90
41481;DHT22;27217;51.220;5.308;2023-05-10T04:47:27;13.10;99.90
41481;DHT22;27217;51.220;5.308;2023-05-10T04:49:54;12.90;99.90
41481;DHT22;27217;51.220;5.308;2023-05-10T04:52:20;13.00;99.90
41481;DHT22;27217;51.220;5.308;2023-05-10T04:54:46;12.90;99.90
41481;DHT22;27217;51.220;5.308;2023-05-10T04:57:12;13.10;99.90
41481;DHT22;27217;51.220;5.308;2023-05-10T04:59:39;13.30;99.90
41481;DHT22;27217;51.220;5.308;2023-05-10T05:02:05;13.10;99.90
41481;DHT22;27217;51.220;5.308;2023-05-10T05:04:30;12.90;99.90
41481;DHT22;27217;51.220;5.308;2023-05-10T05:06:57;13.10;99.90
41481;DHT22;27217;51.220;5.308;2023-05-10T05:09:22;13.20;99.90
41481;DHT22;27217;51.220;5.308;2023-05-10T05:11:48;13.00;99.90
41481;DHT22;27217;51.220;5.308;2023-05-10T05:14:14;13.10;99.90
41481;DHT22;27217;51.220;5.308;2023-05-10T05:16:40;13.30;99.90
41481;DHT22;27217;51.220;5.308;2023-05-10T05:19:06;13.10;99.90
41481;DHT22;27217;51.220;5.308;2023-05-10T05:21:32;13.20;99.90
41481;DHT22;27217;51.220;5.308;2023-05-10T05:23:58;13.10;99.90
41481;DHT22;27217;51.220;5.308;2023-05-10T05:26:24;13.10;99.90
41481;DHT22;27217;51.220;5.308;2023-05-10T05:28:50;13.20;99.90
41481;DHT22;27217;51.220;5.308;2023-05-10T05:31:19;13.30;99.90
41481;DHT22;27217;51.220;5.308;2023-05-10T05:33:45;13.40;99.90
41481;DHT22;27217;51.220;5.308;2023-05-10T05:36:11;13.60;99.90
41481;DHT22;27217;51.220;5.308;2023-05-10T05:38:36;13.80;99.90
41481;DHT22;27217;51.220;5.308;2023-05-10T05:41:03;13.70;99.90
41481;DHT22;27217;51.220;5.308;2023-05-10T05:43:28;13.80;99.90
41481;DHT22;27217;51.220;5.308;2023-05-10T05:45:54;14.00;99.90
41481;DHT22;27217;51.220;5.308;2023-05-10T05:48:21;14.10;99.90
41481;DHT22;27217;51.220;5.308;2023-05-10T05:50:46;14.00;99.90
41481;DHT22;27217;51.220;5.308;2023-05-10T05:53:12;14.10;99.90
41481;DHT22;27217;51.220;5.308;2023-05-10T05:55:39;14.00;99.90
41481;DHT22;27217;51.220;5.308;2023-05-10T05:58:04;13.60;99.90
41481;DHT22;27217;51.220;5.308;2023-05-10T06:00:30;13.70;99.90
41481;DHT22;27217;51.220;5.308;2023-05-10T06:02:56;13.50;99.90
41481;DHT22;27217;51.220;5.308;2023-05-10T06:05:22;13.50;99.90
41481;DHT22;27217;51.220;5.308;2023-05-10T06:07:48;13.60;99.90
41481;DHT22;27217;51.220;5.308;2023-05-10T06:10:13;13.60;99.90
41481;DHT22;27217;51.220;5.308;2023-05-10T06:12:42;13.50;99.90
41481;DHT22;27217;51.220;5.308;2023-05-10T06:15:08;13.40;99.90
41481;DHT22;27217;51.220;5.308;2023-05-10T06:17:34;13.30;99.90
41481;DHT22;27217;51.220;5.308;2023-05-10T06:20:00;13.20;99.90
41481;DHT22;27217;51.220;5.308;2023-05-10T06:22:25;13.60;99.90
41481;DHT22;27217;51.220;5.308;2023-05-10T06:24:51;13.60;99.90
41481;DHT22;27217;51.220;5.308;2023-05-10T06:27:17;13.80;99.90
41481;DHT22;27217;51.220;5.308;2023-05-10T06:29:42;14.30;99.90
41481;DHT22;27217;51.220;5.308;2023-05-10T06:32:08;14.30;99.90
41481;DHT22;27217;51.220;5.308;2023-05-10T06:34:34;14.40;99.90
41481;DHT22;27217;51.220;5.308;2023-05-10T06:36:59;14.60;99.90
41481;DHT22;27217;51.220;5.308;2023-05-10T06:39:25;14.40;99.90
41481;DHT22;27217;51.220;5.308;2023-05-10T06:41:51;14.30;99.90
41481;DHT22;27217;51.220;5.308;2023-05-10T06:44:16;14.10;99.90
41481;DHT22;27217;51.220;5.308;2023-05-10T06:46:42;14.10;99.90
41481;DHT22;27217;51.220;5.308;2023-05-10T06:49:08;14.20;99.90
41481;DHT22;27217;51.220;5.308;2023-05-10T06:51:33;14.20;99.90
41481;DHT22;27217;51.220;5.308;2023-05-10T06:53:59;14.20;99.90
41481;DHT22;27217;51.220;5.308;2023-05-10T06:56:25;14.50;99.90
41481;DHT22;27217;51.220;5.308;2023-05-10T06:58:51;14.70;99.90
41481;DHT22;27217;51.220;5.308;2023-05-10T07:01:17;14.70;99.90
41481;DHT22;27217;51.220;5.308;2023-05-10T07:03:42;14.00;99.90
41481;DHT22;27217;51.220;5.308;2023-05-10T07:06:08;14.30;99.90
41481;DHT22;27217;51.220;5.308;2023-05-10T07:08:34;14.20;99.90
41481;DHT22;27217;51.220;5.308;2023-05-10T07:11:04;13.80;99.90
41481;DHT22;27217;51.220;5.308;2023-05-10T07:13:32;13.90;99.90
41481;DHT22;27217;51.220;5.308;2023-05-10T07:15:59;13.80;99.90
41481;DHT22;27217;51.220;5.308;2023-05-10T07:18:25;13.80;99.90
41481;DHT22;27217;51.220;5.308;2023-05-10T07:20:52;14.30;99.90
41481;DHT22;27217;51.220;5.308;2023-05-10T07:23:17;14.20;99.90
41481;DHT22;27217;51.220;5.308;2023-05-10T07:25:47;14.40;99.90
41481;DHT22;27217;51.220;5.308;2023-05-10T07:28:16;13.90;99.90
41481;DHT22;27217;51.220;5.308;2023-05-10T07:30:42;14.00;99.90
41481;DHT22;27217;51.220;5.308;2023-05-10T07:33:09;13.80;99.90
41481;DHT22;27217;51.220;5.308;2023-05-10T07:35:36;13.60;99.90
41481;DHT22;27217;51.220;5.308;2023-05-10T07:38:02;13.60;99.90
41481;DHT22;27217;51.220;5.308;2023-05-10T07:40:28;13.90;99.90
41481;DHT22;27217;51.220;5.308;2023-05-10T07:42:57;14.10;99.90
41481;DHT22;27217;51.220;5.308;2023-05-10T07:45:23;14.20;99.90
41481;DHT22;27217;51.220;5.308;2023-05-10T07:47:49;14.30;99.90
41481;DHT22;27217;51.220;5.308;2023-05-10T07:50:15;14.30;99.90
41481;DHT22;27217;51.220;5.308;2023-05-10T07:52:41;14.50;99.90
41481;DHT22;27217;51.220;5.308;2023-05-10T07:55:08;14.10;99.90
41481;DHT22;27217;51.220;5.308;2023-05-10T07:57:34;14.10;99.90
41481;DHT22;27217;51.220;5.308;2023-05-10T08:00:00;13.90;99.90
41481;DHT22;27217;51.220;5.308;2023-05-10T08:02:26;14.00;99.90
41481;DHT22;27217;51.220;5.308;2023-05-10T08:04:52;14.30;99.90
41481;DHT22;27217;51.220;5.308;2023-05-10T08:07:18;14.20;99.90
41481;DHT22;27217;51.220;5.308;2023-05-10T08:09:45;14.30;99.90
41481;DHT22;27217;51.220;5.308;2023-05-10T08:12:11;14.70;99.90
41481;DHT22;27217;51.220;5.308;2023-05-10T08:14:37;14.50;99.90
41481;DHT22;27217;51.220;5.308;2023-05-10T08:17:03;14.70;99.90
41481;DHT22;27217;51.220;5.308;2023-05-10T08:19:29;14.40;99.90
41481;DHT22;27217;51.220;5.308;2023-05-10T08:21:55;14.10;99.90
41481;DHT22;27217;51.220;5.308;2023-05-10T08:24:22;13.90;99.90
41481;DHT22;27217;51.220;5.308;2023-05-10T08:26:48;14.50;99.90
41481;DHT22;27217;51.220;5.308;2023-05-10T08:29:14;14.60;99.90
41481;DHT22;27217;51.220;5.308;2023-05-10T08:31:41;15.40;99.90
41481;DHT22;27217;51.220;5.308;2023-05-10T08:34:07;15.70;99.90
41481;DHT22;27217;51.220;5.308;2023-05-10T08:36:33;15.70;99.90
41481;DHT22;27217;51.220;5.308;2023-05-10T08:38:59;15.20;99.90
41481;DHT22;27217;51.220;5.308;2023-05-10T08:41:25;15.40;99.90
41481;DHT22;27217;51.220;5.308;2023-05-10T08:43:54;16.00;99.90
41481;DHT22;27217;51.220;5.308;2023-05-10T08:46:21;15.90;99.90
41481;DHT22;27217;51.220;5.308;2023-05-10T08:48:50;15.50;99.90
41481;DHT22;27217;51.220;5.308;2023-05-10T08:51:22;15.60;99.90
41481;DHT22;27217;51.220;5.308;2023-05-10T08:53:52;15.60;99.90
41481;DHT22;27217;51.220;5.308;2023-05-10T08:56:18;15.80;99.90
41481;DHT22;27217;51.220;5.308;2023-05-10T08:58:45;16.30;99.90
41481;DHT22;27217;51.220;5.308;2023-05-10T09:01:12;16.40;99.90
41481;DHT22;27217;51.220;5.308;2023-05-10T09:03:39;15.80;99.90
41481;DHT22;27217;51.220;5.308;2023-05-10T09:06:05;16.00;99.90
41481;DHT22;27217;51.220;5.308;2023-05-10T09:08:32;16.90;99.90
41481;DHT22;27217;51.220;5.308;2023-05-10T09:11:00;16.90;99.90
41481;DHT22;27217;51.220;5.308;2023-05-10T09:13:27;16.80;99.90
41481;DHT22;27217;51.220;5.308;2023-05-10T09:15:53;16.40;99.90
41481;DHT22;27217;51.220;5.308;2023-05-10T09:18:18;16.20;99.90
41481;DHT22;27217;51.220;5.308;2023-05-10T09:20:44;16.50;99.90
41481;DHT22;27217;51.220;5.308;2023-05-10T09:23:10;16.20;99.90
41481;DHT22;27217;51.220;5.308;2023-05-10T09:25:36;16.10;99.90
41481;DHT22;27217;51.220;5.308;2023-05-10T09:28:06;16.30;99.90
41481;DHT22;27217;51.220;5.308;2023-05-10T09:30:33;15.80;99.90
41481;DHT22;27217;51.220;5.308;2023-05-10T09:32:59;15.80;99.90
41481;DHT22;27217;51.220;5.308;2023-05-10T09:35:26;16.20;99.90
41481;DHT22;27217;51.220;5.308;2023-05-10T09:37:54;16.30;99.90
41481;DHT22;27217;51.220;5.308;2023-05-10T09:40:22;16.70;99.90
41481;DHT22;27217;51.220;5.308;2023-05-10T09:45:25;17.10;99.90
41481;DHT22;27217;51.220;5.308;2023-05-10T09:47:51;17.40;99.90
41481;DHT22;27217;51.220;5.308;2023-05-10T09:50:17;17.70;99.90
41481;DHT22;27217;51.220;5.308;2023-05-10T09:52:53;18.20;99.90
41481;DHT22;27217;51.220;5.308;2023-05-10T09:55:22;18.30;99.90
41481;DHT22;27217;51.220;5.308;2023-05-10T09:57:48;18.40;99.90
41481;DHT22;27217;51.220;5.308;2023-05-10T10:00:19;18.10;99.90
41481;DHT22;27217;51.220;5.308;2023-05-10T10:02:54;18.10;99.90
41481;DHT22;27217;51.220;5.308;2023-05-10T10:05:20;18.10;99.90
41481;DHT22;27217;51.220;5.308;2023-05-10T10:07:46;17.80;99.90
41481;DHT22;27217;51.220;5.308;2023-05-10T10:10:12;17.90;99.90
41481;DHT22;27217;51.220;5.308;2023-05-10T10:12:39;17.80;99.90
41481;DHT22;27217;51.220;5.308;2023-05-10T10:15:08;17.80;99.90
41481;DHT22;27217;51.220;5.308;2023-05-10T10:17:36;18.30;99.90
41481;DHT22;27217;51.220;5.308;2023-05-10T10:20:03;18.30;99.90
41481;DHT22;27217;51.220;5.308;2023-05-10T10:22:29;17.80;99.90
41481;DHT22;27217;51.220;5.308;2023-05-10T10:24:55;18.10;99.90
41481;DHT22;27217;51.220;5.308;2023-05-10T10:30:41;17.30;99.90
41481;DHT22;27217;51.220;5.308;2023-05-10T10:35:36;17.20;99.90
41481;DHT22;27217;51.220;5.308;2023-05-10T10:38:02;17.30;99.90
41481;DHT22;27217;51.220;5.308;2023-05-10T10:40:32;17.40;99.90
41481;DHT22;27217;51.220;5.308;2023-05-10T10:43:20;17.00;99.90
41481;DHT22;27217;51.220;5.308;2023-05-10T10:46:09;17.30;99.90
41481;DHT22;27217;51.220;5.308;2023-05-10T10:48:33;17.30;99.90
41481;DHT22;27217;51.220;5.308;2023-05-10T10:50:58;17.30;99.90
41481;DHT22;27217;51.220;5.308;2023-05-10T10:53:27;16.70;99.90
41481;DHT22;27217;51.220;5.308;2023-05-10T10:56:08;16.60;99.90
41481;DHT22;27217;51.220;5.308;2023-05-10T10:58:38;16.40;99.90
41481;DHT22;27217;51.220;5.308;2023-05-10T11:01:33;15.90;99.90
41481;DHT22;27217;51.220;5.308;2023-05-10T11:06:30;15.50;99.90
41481;DHT22;27217;51.220;5.308;2023-05-10T11:09:05;15.70;99.90
41481;DHT22;27217;51.220;5.308;2023-05-10T11:11:31;15.80;99.90
41481;DHT22;27217;51.220;5.308;2023-05-10T11:14:03;15.60;99.90
41481;DHT22;27217;51.220;5.308;2023-05-10T11:16:40;15.80;99.90
41481;DHT22;27217;51.220;5.308;2023-05-10T11:19:10;15.90;99.90
41481;DHT22;27217;51.220;5.308;2023-05-10T11:24:16;16.70;99.90
41481;DHT22;27217;51.220;5.308;2023-05-10T11:26:43;16.20;99.90
41481;DHT22;27217;51.220;5.308;2023-05-10T11:29:09;16.30;99.90
41481;DHT22;27217;51.220;5.308;2023-05-10T11:31:35;16.10;99.90
41481;DHT22;27217;51.220;5.308;2023-05-10T11:34:07;16.70;99.90
41481;DHT22;27217;51.220;5.308;2023-05-10T11:36:35;16.60;99.90
41481;DHT22;27217;51.220;5.308;2023-05-10T11:39:02;16.60;99.90
41481;DHT22;27217;51.220;5.308;2023-05-10T11:41:29;17.00;99.90
41481;DHT22;27217;51.220;5.308;2023-05-10T11:43:56;17.40;99.90
41481;DHT22;27217;51.220;5.308;2023-05-10T11:46:25;17.80;99.90
41481;DHT22;27217;51.220;5.308;2023-05-10T11:48:54;18.60;99.90
41481;DHT22;27217;51.220;5.308;2023-05-10T11:51:24;18.90;99.90
41481;DHT22;27217;51.220;5.308;2023-05-10T11:53:54;18.70;99.90
41481;DHT22;27217;51.220;5.308;2023-05-10T11:56:26;19.00;99.90
41481;DHT22;27217;51.220;5.308;2023-05-10T11:58:56;19.20;99.90
41481;DHT22;27217;51.220;5.308;2023-05-10T12:01:22;19.20;99.90
41481;DHT22;27217;51.220;5.308;2023-05-10T12:03:50;19.30;99.90
41481;DHT22;27217;51.220;5.308;2023-05-10T12:06:19;18.90;99.90
41481;DHT22;27217;51.220;5.308;2023-05-10T12:08:46;17.90;99.90
41481;DHT22;27217;51.220;5.308;2023-05-10T12:11:13;17.60;99.90
41481;DHT22;27217;51.220;5.308;2023-05-10T12:13:43;17.50;99.90
41481;DHT22;27217;51.220;5.308;2023-05-10T12:16:23;17.60;99.90
41481;DHT22;27217;51.220;5.308;2023-05-10T12:18:54;18.40;99.90
41481;DHT22;27217;51.220;5.308;2023-05-10T12:21:21;18.10;99.90
41481;DHT22;27217;51.220;5.308;2023-05-10T12:23:50;18.90;99.90
41481;DHT22;27217;51.220;5.308;2023-05-10T12:26:17;19.00;99.90
41481;DHT22;27217;51.220;5.308;2023-05-10T12:28:42;19.00;99.90
41481;DHT22;27217;51.220;5.308;2023-05-10T12:31:08;19.60;99.90
41481;DHT22;27217;51.220;5.308;2023-05-10T12:33:42;19.80;99.90
41481;DHT22;27217;51.220;5.308;2023-05-10T12:36:09;20.30;99.90
41481;DHT22;27217;51.220;5.308;2023-05-10T12:38:36;21.10;99.90
41481;DHT22;27217;51.220;5.308;2023-05-10T12:41:07;21.20;99.90
41481;DHT22;27217;51.220;5.308;2023-05-10T12:43:34;20.90;99.90
41481;DHT22;27217;51.220;5.308;2023-05-10T12:46:08;21.80;99.90
41481;DHT22;27217;51.220;5.308;2023-05-10T12:48:35;21.80;99.90
41481;DHT22;27217;51.220;5.308;2023-05-10T12:51:03;20.40;99.90
41481;DHT22;27217;51.220;5.308;2023-05-10T12:53:29;19.80;99.90
41481;DHT22;27217;51.220;5.308;2023-05-10T12:55:55;19.80;99.90
41481;DHT22;27217;51.220;5.308;2023-05-10T12:58:21;19.50;99.90
41481;DHT22;27217;51.220;5.308;2023-05-10T13:00:47;19.40;99.90
41481;DHT22;27217;51.220;5.308;2023-05-10T13:03:12;20.10;99.90
41481;DHT22;27217;51.220;5.308;2023-05-10T13:05:38;20.50;99.90
41481;DHT22;27217;51.220;5.308;2023-05-10T13:08:04;20.60;99.90
41481;DHT22;27217;51.220;5.308;2023-05-10T13:10:32;20.80;99.90
41481;DHT22;27217;51.220;5.308;2023-05-10T13:12:59;22.00;99.90
41481;DHT22;27217;51.220;5.308;2023-05-10T13:15:25;21.70;99.90
41481;DHT22;27217;51.220;5.308;2023-05-10T13:17:51;22.00;99.90
41481;DHT22;27217;51.220;5.308;2023-05-10T13:20:17;21.80;99.90
41481;DHT22;27217;51.220;5.308;2023-05-10T13:22:44;21.10;99.90
41481;DHT22;27217;51.220;5.308;2023-05-10T13:25:10;20.80;99.90
41481;DHT22;27217;51.220;5.308;2023-05-10T13:27:37;21.30;99.90
41481;DHT22;27217;51.220;5.308;2023-05-10T13:30:03;21.70;99.90
41481;DHT22;27217;51.220;5.308;2023-05-10T13:32:29;22.40;99.10
41481;DHT22;27217;51.220;5.308;2023-05-10T13:34:55;21.80;99.90
41481;DHT22;27217;51.220;5.308;2023-05-10T13:37:21;21.60;99.90
41481;DHT22;27217;51.220;5.308;2023-05-10T13:39:47;20.80;99.90
41481;DHT22;27217;51.220;5.308;2023-05-10T13:42:13;21.00;99.90
41481;DHT22;27217;51.220;5.308;2023-05-10T13:44:39;20.30;99.90
41481;DHT22;27217;51.220;5.308;2023-05-10T13:47:05;20.30;99.90
41481;DHT22;27217;51.220;5.308;2023-05-10T13:49:32;19.80;99.90
41481;DHT22;27217;51.220;5.308;2023-05-10T13:51:57;19.30;99.90
41481;DHT22;27217;51.220;5.308;2023-05-10T13:54:24;18.90;99.90
41481;DHT22;27217;51.220;5.308;2023-05-10T13:56:50;19.10;99.90
41481;DHT22;27217;51.220;5.308;2023-05-10T13:59:16;19.30;99.90
41481;DHT22;27217;51.220;5.308;2023-05-10T14:01:43;19.20;99.90
41481;DHT22;27217;51.220;5.308;2023-05-10T14:04:09;19.30;99.90
41481;DHT22;27217;51.220;5.308;2023-05-10T14:06:38;18.80;99.90
41481;DHT22;27217;51.220;5.308;2023-05-10T14:09:05;18.60;99.90
41481;DHT22;27217;51.220;5.308;2023-05-10T14:11:30;19.00;99.90
41481;DHT22;27217;51.220;5.308;2023-05-10T14:13:57;19.10;99.90
41481;DHT22;27217;51.220;5.308;2023-05-10T14:16:23;19.00;99.90
41481;DHT22;27217;51.220;5.308;2023-05-10T14:18:48;18.70;99.90
41481;DHT22;27217;51.220;5.308;2023-05-10T14:21:14;18.60;99.90
41481;DHT22;27217;51.220;5.308;2023-05-10T14:23:40;18.60;99.90
41481;DHT22;27217;51.220;5.308;2023-05-10T14:26:06;18.90;99.90
41481;DHT22;27217;51.220;5.308;2023-05-10T14:28:33;19.10;99.90
41481;DHT22;27217;51.220;5.308;2023-05-10T14:30:59;19.10;99.90
41481;DHT22;27217;51.220;5.308;2023-05-10T14:33:25;19.20;99.90
41481;DHT22;27217;51.220;5.308;2023-05-10T14:35:51;18.60;99.90
41481;DHT22;27217;51.220;5.308;2023-05-10T14:38:16;17.90;99.90
41481;DHT22;27217;51.220;5.308;2023-05-10T14:40:43;18.00;99.90
41481;DHT22;27217;51.220;5.308;2023-05-10T14:43:09;18.40;99.90
41481;DHT22;27217;51.220;5.308;2023-05-10T14:45:34;18.40;99.90
41481;DHT22;27217;51.220;5.308;2023-05-10T14:48:00;18.10;99.90
41481;DHT22;27217;51.220;5.308;2023-05-10T14:50:30;18.10;99.90
41481;DHT22;27217;51.220;5.308;2023-05-10T14:52:56;18.20;99.90
41481;DHT22;27217;51.220;5.308;2023-05-10T14:55:22;18.20;99.90
41481;DHT22;27217;51.220;5.308;2023-05-10T14:57:48;17.80;99.90
41481;DHT22;27217;51.220;5.308;2023-05-10T15:00:16;17.30;99.90
41481;DHT22;27217;51.220;5.308;2023-05-10T15:02:44;17.40;99.90
41481;DHT22;27217;51.220;5.308;2023-05-10T15:05:10;17.40;99.90
41481;DHT22;27217;51.220;5.308;2023-05-10T15:07:36;17.60;99.90
41481;DHT22;27217;51.220;5.308;2023-05-10T15:10:02;17.60;99.90
41481;DHT22;27217;51.220;5.308;2023-05-10T15:12:28;17.30;99.90
41481;DHT22;27217;51.220;5.308;2023-05-10T15:14:58;17.00;99.90
41481;DHT22;27217;51.220;5.308;2023-05-10T15:17:23;17.00;99.90
41481;DHT22;27217;51.220;5.308;2023-05-10T15:19:49;17.10;99.90
41481;DHT22;27217;51.220;5.308;2023-05-10T15:22:16;17.30;99.90
41481;DHT22;27217;51.220;5.308;2023-05-10T15:24:42;17.00;99.90
41481;DHT22;27217;51.220;5.308;2023-05-10T15:27:08;17.10;99.90
41481;DHT22;27217;51.220;5.308;2023-05-10T15:29:34;17.20;99.90
41481;DHT22;27217;51.220;5.308;2023-05-10T15:32:01;17.30;99.90
41481;DHT22;27217;51.220;5.308;2023-05-10T15:34:27;17.10;99.90
41481;DHT22;27217;51.220;5.308;2023-05-10T15:36:53;17.30;99.90
41481;DHT22;27217;51.220;5.308;2023-05-10T15:39:19;17.40;99.90
41481;DHT22;27217;51.220;5.308;2023-05-10T15:41:45;17.10;99.90
41481;DHT22;27217;51.220;5.308;2023-05-10T15:44:12;17.10;99.90
41481;DHT22;27217;51.220;5.308;2023-05-10T15:46:38;17.30;99.90
41481;DHT22;27217;51.220;5.308;2023-05-10T15:49:04;17.30;99.90
41481;DHT22;27217;51.220;5.308;2023-05-10T15:51:31;17.40;99.90
41481;DHT22;27217;51.220;5.308;2023-05-10T15:53:58;17.70;99.90
41481;DHT22;27217;51.220;5.308;2023-05-10T15:56:24;17.80;99.90
41481;DHT22;27217;51.220;5.308;2023-05-10T15:58:51;17.80;99.90